S68 weather

Orofino Municipal Airport
Orofino, Idaho, United States

Public forecast

Using degrees Fahrenheit for public forecast. Weather courtesy of forecast.io.

METAR (pilot weather report)

Closest report is Lewiston Nez Perce County Airport, 31.3 nm (58.0 km) WSW. Retrieved 2019/07/18 22:56 UTC (2 hours ago):

KLWS 182256Z 31019G28KT 10SM CLR 28/02 A2983 RMK AO2 PK WND 30029/2213 SLP091 T02780022

TAF (pilot weather forecast)

Forecast is more than 12 hours old.

Closest forecast is Lewiston Nez Perce County Airport, 31.3 nm (58.0 km) WSW. Retrieved 2019/07/18 00:24 UTC (1 day ago):

TAF KLWS 182323Z 1900/1924 30019G27KT P6SM SCT060 FM190300 29011G16KT P6SM SKC FM190500 28011KT P6SM FEW250 FM191500 23006KT P6SM SCT250 FM191900 21012G19KT P6SM SCT060